createdAt,value
2018-12-22T00:08:01.127Z,5.4
2018-12-22T00:18:01.119Z,5.3
2018-12-22T00:28:01.456Z,5.2
2018-12-22T00:44:01.308Z,5.2
2018-12-22T00:54:01.367Z,5.1
2018-12-22T01:10:01.419Z,5.1
2018-12-22T01:15:01.386Z,5.1
2018-12-22T01:30:01.335Z,5.1
2018-12-22T01:45:01.363Z,5.1
2018-12-22T02:00:01.535Z,5.1
2018-12-22T02:15:01.465Z,5.1
2018-12-22T02:30:01.359Z,5.1
2018-12-22T02:40:01.353Z,5.0
2018-12-22T02:45:01.322Z,5.0
2018-12-22T03:00:01.464Z,5.0
2018-12-22T03:15:01.329Z,5.0
2018-12-22T03:30:01.321Z,5.0
2018-12-22T03:40:01.324Z,4.9
2018-12-22T03:45:01.317Z,4.9
2018-12-22T04:00:01.404Z,4.9
2018-12-22T04:10:01.364Z,5.0
2018-12-22T04:15:01.399Z,5.0
2018-12-22T04:30:01.387Z,5.0
2018-12-22T04:40:01.423Z,4.9
2018-12-22T04:45:01.410Z,4.9
2018-12-22T04:50:01.303Z,4.8
2018-12-22T04:55:01.440Z,4.7
2018-12-22T05:00:01.277Z,4.6
2018-12-22T05:10:01.392Z,4.5
2018-12-22T05:15:01.327Z,4.5
2018-12-22T05:25:01.320Z,4.4
2018-12-22T05:30:01.316Z,4.4
2018-12-22T05:45:01.450Z,4.4
2018-12-22T06:00:01.412Z,4.4
2018-12-22T06:15:01.344Z,4.4
2018-12-22T06:30:08.880Z,4.5
2018-12-22T06:45:01.500Z,4.5
2018-12-22T07:00:01.395Z,4.5
2018-12-22T07:15:01.467Z,4.5
2018-12-22T07:20:01.404Z,4.4
2018-12-22T07:30:01.461Z,4.4
2018-12-22T07:45:01.613Z,4.4
2018-12-22T08:00:01.512Z,4.4
2018-12-22T08:10:01.430Z,4.3
2018-12-22T08:15:02.520Z,4.3
2018-12-22T08:25:01.391Z,4.2
2018-12-22T08:30:01.476Z,4.2
2018-12-22T08:45:01.249Z,4.2
2018-12-22T09:00:01.329Z,4.3
2018-12-22T09:10:01.271Z,4.4
2018-12-22T09:15:01.332Z,4.4
2018-12-22T09:20:01.281Z,4.5
2018-12-22T09:30:01.086Z,4.5
2018-12-22T09:35:01.232Z,4.6
2018-12-22T09:45:01.245Z,4.6
2018-12-22T10:00:06.294Z,4.7
2018-12-22T10:10:01.287Z,4.8
2018-12-22T10:15:01.293Z,4.8
2018-12-22T10:20:01.284Z,4.9
2018-12-22T10:30:01.361Z,5.0
2018-12-22T10:45:01.251Z,5.0
2018-12-22T11:00:01.256Z,5.1
2018-12-22T11:10:01.252Z,5.2
2018-12-22T11:15:01.256Z,5.2
2018-12-22T11:30:01.254Z,5.2
2018-12-22T11:45:01.274Z,5.1
2018-12-22T11:56:01.247Z,5.2
2018-12-22T12:11:01.250Z,5.3
2018-12-22T12:21:01.244Z,5.4
2018-12-22T12:26:01.118Z,5.5
2018-12-22T12:31:01.081Z,5.6
2018-12-22T12:36:01.352Z,5.7
2018-12-22T12:41:01.482Z,5.8
2018-12-22T12:46:01.355Z,5.9
2018-12-22T13:01:01.417Z,5.8
2018-12-22T13:11:01.449Z,5.7
2018-12-22T13:21:01.395Z,5.6
2018-12-22T13:26:01.423Z,5.5
2018-12-22T13:41:01.383Z,5.5
2018-12-22T13:51:01.975Z,5.4
2018-12-22T14:06:01.397Z,5.4
2018-12-22T14:21:01.392Z,5.4
2018-12-22T14:36:01.382Z,5.3
2018-12-22T14:51:01.395Z,5.3
2018-12-22T15:07:01.355Z,5.2
2018-12-22T15:17:01.473Z,5.1
2018-12-22T15:32:01.391Z,5.0
2018-12-22T15:37:01.427Z,4.9
2018-12-22T15:42:01.428Z,4.8
2018-12-22T15:47:01.388Z,4.7
2018-12-22T15:57:01.529Z,4.6
2018-12-22T16:12:01.558Z,4.6
2018-12-22T16:27:01.379Z,4.6
2018-12-22T16:43:01.302Z,4.6
2018-12-22T16:58:01.306Z,4.6
2018-12-22T17:13:01.411Z,4.6
2018-12-22T17:29:01.342Z,4.6
2018-12-22T17:44:01.313Z,4.6
2018-12-22T17:59:01.387Z,4.6
2018-12-22T18:14:01.337Z,4.6
2018-12-22T18:29:01.325Z,4.6
2018-12-22T18:44:01.368Z,4.6
2018-12-22T18:59:02.125Z,4.5
2018-12-22T19:14:01.379Z,4.6
2018-12-22T19:29:02.305Z,4.6
2018-12-22T19:45:01.442Z,4.6
2018-12-22T19:50:01.313Z,4.7
2018-12-22T20:00:01.282Z,4.7
2018-12-22T20:15:01.249Z,4.7
2018-12-22T20:30:01.578Z,4.7
2018-12-22T20:45:01.471Z,4.7
2018-12-22T21:00:01.566Z,4.8
2018-12-22T21:15:01.641Z,4.8
2018-12-22T21:20:01.315Z,4.9
2018-12-22T21:30:01.468Z,4.9
2018-12-22T21:45:01.534Z,4.9
2018-12-22T22:00:01.545Z,4.9
2018-12-22T22:05:01.316Z,5.0
2018-12-22T22:15:04.034Z,5.0
2018-12-22T22:30:01.493Z,5.0
2018-12-22T22:40:01.921Z,5.1
2018-12-22T22:45:01.410Z,5.1
2018-12-22T23:01:01.371Z,5.1
2018-12-22T23:06:01.391Z,5.2
2018-12-22T23:16:01.256Z,5.3
2018-12-22T23:31:01.325Z,5.4
2018-12-22T23:46:01.317Z,5.5
